sensor_id;sensor_type;location;lat;lon;timestamp;pressure;altitude;pressure_sealevel;temperature;humidity
44001;BME280;29660;42.892;24.710;2023-04-30T00:05:03;96686.72;;;10.91;97.92
44001;BME280;29660;42.892;24.710;2023-04-30T00:10:26;96694.59;;;10.96;98.65
44001;BME280;29660;42.892;24.710;2023-04-30T00:15:48;96738.63;;;11.13;100.00
44001;BME280;29660;42.892;24.710;2023-04-30T00:21:10;96731.78;;;11.06;100.00
44001;BME280;29660;42.892;24.710;2023-04-30T00:26:32;96446.19;;;9.19;100.00
44001;BME280;29660;42.892;24.710;2023-04-30T00:31:54;96637.97;;;10.30;100.00
44001;BME280;29660;42.892;24.710;2023-04-30T00:37:16;96734.25;;;10.89;100.00
44001;BME280;29660;42.892;24.710;2023-04-30T00:42:39;96718.31;;;10.70;100.00
44001;BME280;29660;42.892;24.710;2023-04-30T00:48:01;96483.66;;;9.03;100.00
44001;BME280;29660;42.892;24.710;2023-04-30T00:53:23;96415.72;;;8.78;100.00
44001;BME280;29660;42.892;24.710;2023-04-30T00:58:46;96662.06;;;10.20;100.00
44001;BME280;29660;42.892;24.710;2023-04-30T01:04:08;96426.47;;;8.68;100.00
44001;BME280;29660;42.892;24.710;2023-04-30T01:09:31;96675.63;;;10.24;100.00
44001;BME280;29660;42.892;24.710;2023-04-30T01:15:06;96633.66;;;9.83;100.00
44001;BME280;29660;42.892;24.710;2023-04-30T01:20:29;96640.34;;;9.80;100.00
44001;BME280;29660;42.892;24.710;2023-04-30T01:25:59;96480.50;;;8.64;100.00
44001;BME280;29660;42.892;24.710;2023-04-30T01:31:27;96430.00;;;8.21;100.00
44001;BME280;29660;42.892;24.710;2023-04-30T01:37:09;96706.03;;;9.85;100.00
44001;BME280;29660;42.892;24.710;2023-04-30T01:42:44;96624.44;;;9.19;100.00
44001;BME280;29660;42.892;24.710;2023-04-30T01:54:05;96707.06;;;9.27;100.00
44001;BME280;29660;42.892;24.710;2023-04-30T01:59:38;96425.28;;;7.46;100.00
44001;BME280;29660;42.892;24.710;2023-04-30T02:05:00;96399.09;;;7.39;100.00
44001;BME280;29660;42.892;24.710;2023-04-30T02:10:24;96502.47;;;8.02;100.00
44001;BME280;29660;42.892;24.710;2023-04-30T02:15:46;96450.09;;;7.60;100.00
44001;BME280;29660;42.892;24.710;2023-04-30T02:21:08;96203.66;;;6.04;100.00
44001;BME280;29660;42.892;24.710;2023-04-30T02:26:30;96402.69;;;7.24;100.00
44001;BME280;29660;42.892;24.710;2023-04-30T02:31:53;96717.38;;;9.34;100.00
44001;BME280;29660;42.892;24.710;2023-04-30T02:37:15;96483.53;;;7.85;100.00
44001;BME280;29660;42.892;24.710;2023-04-30T02:42:37;96713.22;;;9.28;100.00
44001;BME280;29660;42.892;24.710;2023-04-30T02:47:59;96347.03;;;6.90;100.00
44001;BME280;29660;42.892;24.710;2023-04-30T02:53:21;96426.38;;;7.16;100.00
44001;BME280;29660;42.892;24.710;2023-04-30T02:58:43;96534.63;;;7.72;100.00
44001;BME280;29660;42.892;24.710;2023-04-30T03:04:05;96715.25;;;8.88;100.00
44001;BME280;29660;42.892;24.710;2023-04-30T03:09:29;96702.78;;;8.59;100.00
44001;BME280;29660;42.892;24.710;2023-04-30T03:14:53;96452.56;;;6.83;100.00
44001;BME280;29660;42.892;24.710;2023-04-30T03:20:15;96445.75;;;6.72;100.00
44001;BME280;29660;42.892;24.710;2023-04-30T03:25:37;96730.56;;;8.43;100.00
44001;BME280;29660;42.892;24.710;2023-04-30T03:31:01;96674.13;;;7.88;100.00
44001;BME280;29660;42.892;24.710;2023-04-30T03:36:26;96443.59;;;6.34;100.00
44001;BME280;29660;42.892;24.710;2023-04-30T03:41:48;96698.41;;;7.71;100.00
44001;BME280;29660;42.892;24.710;2023-04-30T03:47:10;96713.81;;;7.69;100.00
44001;BME280;29660;42.892;24.710;2023-04-30T03:52:32;96458.06;;;5.93;100.00
44001;BME280;29660;42.892;24.710;2023-04-30T03:57:55;96709.88;;;7.61;100.00
44001;BME280;29660;42.892;24.710;2023-04-30T04:03:17;96707.28;;;7.46;100.00
44001;BME280;29660;42.892;24.710;2023-04-30T04:08:39;96244.22;;;4.60;100.00
44001;BME280;29660;42.892;24.710;2023-04-30T04:14:04;96729.03;;;7.98;100.00
44001;BME280;29660;42.892;24.710;2023-04-30T04:19:26;96635.94;;;7.84;100.00
44001;BME280;29660;42.892;24.710;2023-04-30T04:24:51;96478.56;;;7.20;100.00
44001;BME280;29660;42.892;24.710;2023-04-30T04:30:15;96504.47;;;7.62;100.00
44001;BME280;29660;42.892;24.710;2023-04-30T04:35:38;96478.75;;;7.58;100.00
44001;BME280;29660;42.892;24.710;2023-04-30T04:41:00;96574.16;;;8.55;100.00
44001;BME280;29660;42.892;24.710;2023-04-30T04:46:24;96749.53;;;9.99;100.00
44001;BME280;29660;42.892;24.710;2023-04-30T04:51:46;96708.34;;;10.11;100.00
44001;BME280;29660;42.892;24.710;2023-04-30T04:57:08;96378.97;;;8.24;100.00
44001;BME280;29660;42.892;24.710;2023-04-30T05:02:30;96768.84;;;11.08;100.00
44001;BME280;29660;42.892;24.710;2023-04-30T05:07:53;96521.59;;;9.79;98.49
44001;BME280;29660;42.892;24.710;2023-04-30T05:13:15;96750.38;;;11.25;97.16
44001;BME280;29660;42.892;24.710;2023-04-30T05:18:38;96293.97;;;8.62;95.47
44001;BME280;29660;42.892;24.710;2023-04-30T05:24:00;96651.41;;;11.22;94.81
44001;BME280;29660;42.892;24.710;2023-04-30T05:29:22;96755.69;;;12.17;92.93
44001;BME280;29660;42.892;24.710;2023-04-30T05:34:44;96738.50;;;12.32;90.36
44001;BME280;29660;42.892;24.710;2023-04-30T05:40:07;96738.50;;;12.54;89.39
44001;BME280;29660;42.892;24.710;2023-04-30T05:45:30;96466.03;;;11.05;88.59
44001;BME280;29660;42.892;24.710;2023-04-30T05:50:52;96482.75;;;11.42;88.83
44001;BME280;29660;42.892;24.710;2023-04-30T05:56:14;96733.06;;;13.30;87.12
44001;BME280;29660;42.892;24.710;2023-04-30T06:01:36;96471.97;;;11.78;83.07
44001;BME280;29660;42.892;24.710;2023-04-30T06:06:58;96429.69;;;11.72;85.62
44001;BME280;29660;42.892;24.710;2023-04-30T06:12:20;96736.34;;;14.02;82.01
44001;BME280;29660;42.892;24.710;2023-04-30T06:17:42;96499.19;;;12.60;76.03
44001;BME280;29660;42.892;24.710;2023-04-30T06:23:05;96735.88;;;14.43;77.45
44001;BME280;29660;42.892;24.710;2023-04-30T06:28:27;96594.94;;;13.64;75.09
44001;BME280;29660;42.892;24.710;2023-04-30T06:33:49;96657.78;;;14.27;69.34
44001;BME280;29660;42.892;24.710;2023-04-30T06:39:14;96450.13;;;13.34;66.74
44001;BME280;29660;42.892;24.710;2023-04-30T06:44:37;96731.75;;;15.48;63.33
44001;BME280;29660;42.892;24.710;2023-04-30T06:50:02;96713.94;;;15.73;59.35
44001;BME280;29660;42.892;24.710;2023-04-30T06:55:25;96359.97;;;13.85;57.96
44001;BME280;29660;42.892;24.710;2023-04-30T07:00:48;96498.97;;;15.02;56.26
44001;BME280;29660;42.892;24.710;2023-04-30T07:06:10;96686.56;;;16.46;54.27
44001;BME280;29660;42.892;24.710;2023-04-30T07:11:32;96488.78;;;15.28;54.97
44001;BME280;29660;42.892;24.710;2023-04-30T07:16:54;96741.38;;;17.08;54.33
44001;BME280;29660;42.892;24.710;2023-04-30T07:22:17;96495.13;;;15.65;53.86
44001;BME280;29660;42.892;24.710;2023-04-30T07:27:39;96718.41;;;17.35;48.59
44001;BME280;29660;42.892;24.710;2023-04-30T07:33:01;96721.19;;;17.51;44.59
44001;BME280;29660;42.892;24.710;2023-04-30T07:38:23;96463.47;;;15.83;44.74
44001;BME280;29660;42.892;24.710;2023-04-30T07:43:46;96516.22;;;16.45;44.39
44001;BME280;29660;42.892;24.710;2023-04-30T07:49:08;96748.53;;;18.14;43.52
44001;BME280;29660;42.892;24.710;2023-04-30T07:54:30;96727.38;;;18.28;42.40
44001;BME280;29660;42.892;24.710;2023-04-30T07:59:52;96502.41;;;16.96;41.26
44001;BME280;29660;42.892;24.710;2023-04-30T08:05:15;96596.72;;;17.61;42.45
44001;BME280;29660;42.892;24.710;2023-04-30T08:10:38;96532.34;;;17.19;41.72
44001;BME280;29660;42.892;24.710;2023-04-30T08:16:02;96750.78;;;18.80;41.42
44001;BME280;29660;42.892;24.710;2023-04-30T08:21:24;96707.03;;;18.47;41.39
44001;BME280;29660;42.892;24.710;2023-04-30T08:26:48;96581.84;;;17.67;41.82
44001;BME280;29660;42.892;24.710;2023-04-30T08:32:10;96755.88;;;18.70;43.47
44001;BME280;29660;42.892;24.710;2023-04-30T08:37:33;96709.59;;;18.83;43.37
44001;BME280;29660;42.892;24.710;2023-04-30T08:43:07;96750.66;;;19.52;43.18
44001;BME280;29660;42.892;24.710;2023-04-30T08:48:29;96741.31;;;19.50;43.53
44001;BME280;29660;42.892;24.710;2023-04-30T08:53:54;96743.28;;;19.84;43.61
44001;BME280;29660;42.892;24.710;2023-04-30T08:59:36;96738.31;;;19.86;44.08
44001;BME280;29660;42.892;24.710;2023-04-30T09:04:58;96525.09;;;18.51;42.15
44001;BME280;29660;42.892;24.710;2023-04-30T09:10:21;96493.63;;;18.59;43.76
44001;BME280;29660;42.892;24.710;2023-04-30T09:15:50;96532.22;;;18.75;42.15
44001;BME280;29660;42.892;24.710;2023-04-30T09:21:13;96487.31;;;18.20;41.70
44001;BME280;29660;42.892;24.710;2023-04-30T09:26:37;96704.19;;;19.15;42.95
44001;BME280;29660;42.892;24.710;2023-04-30T09:32:07;96483.97;;;17.66;43.25
44001;BME280;29660;42.892;24.710;2023-04-30T09:37:36;96725.78;;;19.47;42.68
44001;BME280;29660;42.892;24.710;2023-04-30T09:42:59;96723.09;;;19.15;43.29
44001;BME280;29660;42.892;24.710;2023-04-30T09:48:22;96655.84;;;18.66;43.39
44001;BME280;29660;42.892;24.710;2023-04-30T09:53:44;96449.16;;;17.46;44.09
44001;BME280;29660;42.892;24.710;2023-04-30T09:59:07;96638.44;;;19.11;42.42
44001;BME280;29660;42.892;24.710;2023-04-30T10:04:36;96464.09;;;17.87;42.28
44001;BME280;29660;42.892;24.710;2023-04-30T10:10:03;96463.50;;;17.94;42.25
44001;BME280;29660;42.892;24.710;2023-04-30T10:15:42;96496.25;;;18.08;41.93
44001;BME280;29660;42.892;24.710;2023-04-30T10:21:07;96696.78;;;19.12;43.66
44001;BME280;29660;42.892;24.710;2023-04-30T10:26:33;96708.50;;;19.51;42.84
44001;BME280;29660;42.892;24.710;2023-04-30T10:31:56;96634.25;;;18.98;41.60
44001;BME280;29660;42.892;24.710;2023-04-30T10:43:18;96686.06;;;20.21;41.79
44001;BME280;29660;42.892;24.710;2023-04-30T10:48:41;96419.81;;;18.55;40.48
44001;BME280;29660;42.892;24.710;2023-04-30T10:54:07;96673.00;;;20.07;41.36
44001;BME280;29660;42.892;24.710;2023-04-30T10:59:29;96662.69;;;20.52;40.42
44001;BME280;29660;42.892;24.710;2023-04-30T11:10:32;96420.00;;;19.17;40.46
44001;BME280;29660;42.892;24.710;2023-04-30T11:16:01;96572.34;;;20.44;39.91
44001;BME280;29660;42.892;24.710;2023-04-30T11:21:24;96623.03;;;21.13;38.84
44001;BME280;29660;42.892;24.710;2023-04-30T11:27:04;96646.84;;;21.23;39.34
44001;BME280;29660;42.892;24.710;2023-04-30T11:32:33;96618.81;;;21.15;38.28
44001;BME280;29660;42.892;24.710;2023-04-30T11:37:56;96637.94;;;21.26;38.26
44001;BME280;29660;42.892;24.710;2023-04-30T11:43:32;96424.78;;;20.11;37.85
44001;BME280;29660;42.892;24.710;2023-04-30T11:48:55;96593.81;;;21.29;38.24
44001;BME280;29660;42.892;24.710;2023-04-30T11:54:18;96395.69;;;20.28;36.63
44001;BME280;29660;42.892;24.710;2023-04-30T11:59:40;96384.78;;;20.24;35.82
44001;BME280;29660;42.892;24.710;2023-04-30T12:05:03;96620.78;;;21.71;37.13
44001;BME280;29660;42.892;24.710;2023-04-30T12:10:25;96360.19;;;20.37;36.30
44001;BME280;29660;42.892;24.710;2023-04-30T12:15:58;96636.13;;;22.20;35.26
44001;BME280;29660;42.892;24.710;2023-04-30T12:21:21;96621.94;;;22.04;35.01
44001;BME280;29660;42.892;24.710;2023-04-30T12:26:44;96638.34;;;21.51;36.18
44001;BME280;29660;42.892;24.710;2023-04-30T12:32:06;96336.81;;;20.25;35.48
44001;BME280;29660;42.892;24.710;2023-04-30T12:37:28;96374.38;;;20.53;35.82
44001;BME280;29660;42.892;24.710;2023-04-30T12:42:50;96350.31;;;20.48;36.52
44001;BME280;29660;42.892;24.710;2023-04-30T12:48:14;96610.59;;;22.25;35.92
44001;BME280;29660;42.892;24.710;2023-04-30T12:53:45;96490.28;;;21.50;35.85
44001;BME280;29660;42.892;24.710;2023-04-30T12:59:14;96591.69;;;22.02;36.22
44001;BME280;29660;42.892;24.710;2023-04-30T13:04:37;96598.00;;;21.79;35.01
44001;BME280;29660;42.892;24.710;2023-04-30T13:10:00;96593.56;;;21.98;36.57
44001;BME280;29660;42.892;24.710;2023-04-30T13:15:22;96276.44;;;19.68;36.63
44001;BME280;29660;42.892;24.710;2023-04-30T13:20:44;96325.19;;;19.71;37.80
44001;BME280;29660;42.892;24.710;2023-04-30T13:26:06;96318.94;;;19.67;37.61
44001;BME280;29660;42.892;24.710;2023-04-30T13:31:29;96584.34;;;21.72;38.02
44001;BME280;29660;42.892;24.710;2023-04-30T13:36:51;96359.88;;;20.68;36.67
44001;BME280;29660;42.892;24.710;2023-04-30T13:42:14;96333.63;;;20.19;37.72
44001;BME280;29660;42.892;24.710;2023-04-30T13:47:36;96571.88;;;20.84;38.47
44001;BME280;29660;42.892;24.710;2023-04-30T13:52:59;96604.50;;;20.46;39.37
44001;BME280;29660;42.892;24.710;2023-04-30T13:58:21;96568.13;;;19.81;40.34
44001;BME280;29660;42.892;24.710;2023-04-30T14:03:43;96106.38;;;17.63;40.39
44001;BME280;29660;42.892;24.710;2023-04-30T14:09:24;96575.72;;;21.10;39.62
44001;BME280;29660;42.892;24.710;2023-04-30T14:14:47;96298.66;;;19.57;38.71
44001;BME280;29660;42.892;24.710;2023-04-30T14:20:10;96596.28;;;21.38;39.68
44001;BME280;29660;42.892;24.710;2023-04-30T14:25:33;96367.38;;;19.33;43.32
44001;BME280;29660;42.892;24.710;2023-04-30T14:30:55;96603.88;;;20.52;43.25
44001;BME280;29660;42.892;24.710;2023-04-30T14:36:17;96348.63;;;18.44;44.91
44001;BME280;29660;42.892;24.710;2023-04-30T14:41:39;96608.94;;;19.57;45.43
44001;BME280;29660;42.892;24.710;2023-04-30T14:47:02;96452.19;;;18.35;42.82
44001;BME280;29660;42.892;24.710;2023-04-30T14:52:24;96338.69;;;17.33;43.88
44001;BME280;29660;42.892;24.710;2023-04-30T14:57:46;96395.81;;;17.83;44.62
44001;BME280;29660;42.892;24.710;2023-04-30T15:03:08;96344.97;;;17.37;42.67
44001;BME280;29660;42.892;24.710;2023-04-30T15:08:31;96652.75;;;19.11;44.48
44001;BME280;29660;42.892;24.710;2023-04-30T15:13:53;96598.16;;;19.22;44.37
44001;BME280;29660;42.892;24.710;2023-04-30T18:26:25;96769.72;;;13.61;80.61
44001;BME280;29660;42.892;24.710;2023-04-30T18:31:48;96603.69;;;12.64;80.45
44001;BME280;29660;42.892;24.710;2023-04-30T18:37:10;96729.97;;;13.54;80.25
44001;BME280;29660;42.892;24.710;2023-04-30T18:42:32;96590.97;;;12.69;80.05
44001;BME280;29660;42.892;24.710;2023-04-30T18:47:55;96598.06;;;12.74;78.73
44001;BME280;29660;42.892;24.710;2023-04-30T18:53:17;96829.81;;;13.77;76.87
44001;BME280;29660;42.892;24.710;2023-04-30T18:58:43;96858.03;;;13.83;77.73
44001;BME280;29660;42.892;24.710;2023-04-30T19:04:05;96753.25;;;13.36;79.96
44001;BME280;29660;42.892;24.710;2023-04-30T19:09:27;96853.19;;;13.94;82.50
44001;BME280;29660;42.892;24.710;2023-04-30T19:14:49;96864.09;;;13.97;84.31
44001;BME280;29660;42.892;24.710;2023-04-30T19:20:11;96705.97;;;12.92;82.93
44001;BME280;29660;42.892;24.710;2023-04-30T19:25:36;96644.56;;;12.56;83.34
44001;BME280;29660;42.892;24.710;2023-04-30T19:31:00;96653.69;;;12.55;83.83
44001;BME280;29660;42.892;24.710;2023-04-30T19:36:22;96701.75;;;12.68;84.26
44001;BME280;29660;42.892;24.710;2023-04-30T19:41:45;96633.31;;;12.36;82.39
44001;BME280;29660;42.892;24.710;2023-04-30T19:47:08;96685.25;;;12.75;86.89
44001;BME280;29660;42.892;24.710;2023-04-30T19:52:31;96878.59;;;13.96;92.04
44001;BME280;29660;42.892;24.710;2023-04-30T19:57:53;96612.84;;;12.09;94.25
44001;BME280;29660;42.892;24.710;2023-04-30T20:03:15;96904.19;;;13.71;93.57
44001;BME280;29660;42.892;24.710;2023-04-30T20:08:38;96605.34;;;11.89;92.24
44001;BME280;29660;42.892;24.710;2023-04-30T20:14:00;96833.66;;;13.22;95.38
44001;BME280;29660;42.892;24.710;2023-04-30T20:19:22;96788.59;;;12.62;99.22
44001;BME280;29660;42.892;24.710;2023-04-30T20:24:44;96892.41;;;13.19;98.62
44001;BME280;29660;42.892;24.710;2023-04-30T20:30:06;96865.28;;;12.89;100.00
44001;BME280;29660;42.892;24.710;2023-04-30T20:35:30;96890.59;;;12.83;100.00
44001;BME280;29660;42.892;24.710;2023-04-30T20:40:52;96890.81;;;12.95;99.62
44001;BME280;29660;42.892;24.710;2023-04-30T20:46:15;96629.66;;;11.15;97.80
44001;BME280;29660;42.892;24.710;2023-04-30T20:51:37;96817.91;;;12.09;100.00
44001;BME280;29660;42.892;24.710;2023-04-30T20:57:00;96946.53;;;12.71;100.00
44001;BME280;29660;42.892;24.710;2023-04-30T21:02:22;96968.34;;;12.64;100.00
44001;BME280;29660;42.892;24.710;2023-04-30T21:07:44;96620.81;;;10.50;100.00
44001;BME280;29660;42.892;24.710;2023-04-30T21:13:06;96659.31;;;10.72;100.00
44001;BME280;29660;42.892;24.710;2023-04-30T21:18:30;96887.41;;;12.09;100.00
44001;BME280;29660;42.892;24.710;2023-04-30T21:23:52;96909.56;;;12.09;100.00
44001;BME280;29660;42.892;24.710;2023-04-30T21:29:14;96623.66;;;10.07;100.00
44001;BME280;29660;42.892;24.710;2023-04-30T21:34:37;96929.97;;;11.91;100.00
44001;BME280;29660;42.892;24.710;2023-04-30T21:39:59;96598.09;;;9.74;100.00
44001;BME280;29660;42.892;24.710;2023-04-30T21:45:21;96575.53;;;9.52;100.00
44001;BME280;29660;42.892;24.710;2023-04-30T21:50:43;96943.66;;;11.71;100.00
44001;BME280;29660;42.892;24.710;2023-04-30T21:56:09;96577.00;;;9.26;100.00
44001;BME280;29660;42.892;24.710;2023-04-30T22:01:32;96656.31;;;9.80;100.00
44001;BME280;29660;42.892;24.710;2023-04-30T22:06:54;96664.09;;;9.77;100.00
44001;BME280;29660;42.892;24.710;2023-04-30T22:12:16;96771.44;;;10.34;100.00
44001;BME280;29660;42.892;24.710;2023-04-30T22:17:40;96767.84;;;10.25;100.00
44001;BME280;29660;42.892;24.710;2023-04-30T22:23:02;96620.50;;;9.16;100.00
44001;BME280;29660;42.892;24.710;2023-04-30T22:28:24;96699.22;;;9.60;100.00
44001;BME280;29660;42.892;24.710;2023-04-30T22:33:46;96661.25;;;9.12;100.00
44001;BME280;29660;42.892;24.710;2023-04-30T22:39:08;96904.09;;;10.61;100.00
44001;BME280;29660;42.892;24.710;2023-04-30T22:44:31;96681.06;;;9.24;100.00
44001;BME280;29660;42.892;24.710;2023-04-30T22:49:54;96900.13;;;10.59;100.00
44001;BME280;29660;42.892;24.710;2023-04-30T22:55:17;96950.84;;;10.91;100.00
44001;BME280;29660;42.892;24.710;2023-04-30T23:00:39;96730.50;;;9.49;100.00
44001;BME280;29660;42.892;24.710;2023-04-30T23:06:02;96647.69;;;8.89;100.00
44001;BME280;29660;42.892;24.710;2023-04-30T23:11:24;96975.38;;;10.93;100.00
44001;BME280;29660;42.892;24.710;2023-04-30T23:16:46;96674.84;;;9.10;100.00
44001;BME280;29660;42.892;24.710;2023-04-30T23:22:08;96965.28;;;10.71;100.00
44001;BME280;29660;42.892;24.710;2023-04-30T23:27:31;96672.59;;;8.74;100.00
44001;BME280;29660;42.892;24.710;2023-04-30T23:32:53;96661.88;;;8.79;100.00
44001;BME280;29660;42.892;24.710;2023-04-30T23:38:15;96625.19;;;8.57;100.00
44001;BME280;29660;42.892;24.710;2023-04-30T23:43:37;96958.78;;;10.59;100.00
44001;BME280;29660;42.892;24.710;2023-04-30T23:48:59;96707.09;;;9.03;100.00
44001;BME280;29660;42.892;24.710;2023-04-30T23:54:21;96980.41;;;10.76;100.00
44001;BME280;29660;42.892;24.710;2023-04-30T23:59:43;96866.56;;;9.72;100.00
